sensor_id;sensor_type;location;lat;lon;timestamp;temperature;humidity
19261;DHT22;9764;48.114;11.670;2023-03-20T00:02:05;20.80;86.10
19261;DHT22;9764;48.114;11.670;2023-03-20T00:04:34;20.80;86.10
19261;DHT22;9764;48.114;11.670;2023-03-20T00:07:03;20.80;86.00
19261;DHT22;9764;48.114;11.670;2023-03-20T00:09:36;20.80;86.00
19261;DHT22;9764;48.114;11.670;2023-03-20T00:12:05;20.80;86.90
19261;DHT22;9764;48.114;11.670;2023-03-20T00:14:33;20.80;86.10
19261;DHT22;9764;48.114;11.670;2023-03-20T00:17:09;20.80;86.10
19261;DHT22;9764;48.114;11.670;2023-03-20T00:19:38;20.80;86.00
19261;DHT22;9764;48.114;11.670;2023-03-20T00:22:08;20.80;86.10
19261;DHT22;9764;48.114;11.670;2023-03-20T00:24:37;20.80;86.10
19261;DHT22;9764;48.114;11.670;2023-03-20T00:27:05;20.80;86.10
19261;DHT22;9764;48.114;11.670;2023-03-20T00:29:34;20.80;86.10
19261;DHT22;9764;48.114;11.670;2023-03-20T00:32:02;20.80;86.10
19261;DHT22;9764;48.114;11.670;2023-03-20T00:34:31;20.80;86.10
19261;DHT22;9764;48.114;11.670;2023-03-20T00:36:59;20.80;86.10
19261;DHT22;9764;48.114;11.670;2023-03-20T00:39:30;20.80;86.10
19261;DHT22;9764;48.114;11.670;2023-03-20T00:42:02;20.80;86.10
19261;DHT22;9764;48.114;11.670;2023-03-20T00:44:34;20.80;86.10
19261;DHT22;9764;48.114;11.670;2023-03-20T00:47:05;20.80;86.10
19261;DHT22;9764;48.114;11.670;2023-03-20T00:49:37;20.80;86.10
19261;DHT22;9764;48.114;11.670;2023-03-20T00:52:05;20.80;86.10
19261;DHT22;9764;48.114;11.670;2023-03-20T00:54:36;20.70;86.10
19261;DHT22;9764;48.114;11.670;2023-03-20T00:57:08;20.80;86.10
19261;DHT22;9764;48.114;11.670;2023-03-20T00:59:50;20.80;86.10
19261;DHT22;9764;48.114;11.670;2023-03-20T01:02:21;20.80;86.10
19261;DHT22;9764;48.114;11.670;2023-03-20T01:04:50;20.80;86.10
19261;DHT22;9764;48.114;11.670;2023-03-20T01:07:19;20.70;86.10
19261;DHT22;9764;48.114;11.670;2023-03-20T01:09:49;20.70;86.10
19261;DHT22;9764;48.114;11.670;2023-03-20T01:12:18;20.70;86.00
19261;DHT22;9764;48.114;11.670;2023-03-20T01:14:50;20.70;86.10
19261;DHT22;9764;48.114;11.670;2023-03-20T01:17:22;20.80;86.10
19261;DHT22;9764;48.114;11.670;2023-03-20T01:19:51;20.70;86.00
19261;DHT22;9764;48.114;11.670;2023-03-20T01:22:20;20.70;86.10
19261;DHT22;9764;48.114;11.670;2023-03-20T01:24:49;20.70;86.10
19261;DHT22;9764;48.114;11.670;2023-03-20T01:27:19;20.70;86.10
19261;DHT22;9764;48.114;11.670;2023-03-20T01:29:48;20.70;86.90
19261;DHT22;9764;48.114;11.670;2023-03-20T01:32:18;20.70;86.10
19261;DHT22;9764;48.114;11.670;2023-03-20T01:34:48;20.70;86.10
19261;DHT22;9764;48.114;11.670;2023-03-20T01:37:23;20.70;86.10
19261;DHT22;9764;48.114;11.670;2023-03-20T01:39:55;20.70;86.00
19261;DHT22;9764;48.114;11.670;2023-03-20T01:42:24;20.70;86.10
19261;DHT22;9764;48.114;11.670;2023-03-20T01:44:52;20.70;86.10
19261;DHT22;9764;48.114;11.670;2023-03-20T01:47:23;20.70;86.10
19261;DHT22;9764;48.114;11.670;2023-03-20T01:50:18;20.70;86.10
19261;DHT22;9764;48.114;11.670;2023-03-20T01:52:53;20.70;86.10
19261;DHT22;9764;48.114;11.670;2023-03-20T01:55:24;20.70;86.10
19261;DHT22;9764;48.114;11.670;2023-03-20T01:58:01;20.70;86.10
19261;DHT22;9764;48.114;11.670;2023-03-20T02:00:33;20.70;87.00
19261;DHT22;9764;48.114;11.670;2023-03-20T02:03:05;20.70;86.10
19261;DHT22;9764;48.114;11.670;2023-03-20T02:06:10;20.70;86.10
19261;DHT22;9764;48.114;11.670;2023-03-20T02:08:59;20.70;86.10
19261;DHT22;9764;48.114;11.670;2023-03-20T02:11:36;20.70;86.10
19261;DHT22;9764;48.114;11.670;2023-03-20T02:14:05;20.70;86.10
19261;DHT22;9764;48.114;11.670;2023-03-20T02:16:47;20.70;86.20
19261;DHT22;9764;48.114;11.670;2023-03-20T02:19:30;20.70;86.20
19261;DHT22;9764;48.114;11.670;2023-03-20T02:22:23;20.60;86.00
19261;DHT22;9764;48.114;11.670;2023-03-20T02:28:36;20.60;86.10
19261;DHT22;9764;48.114;11.670;2023-03-20T02:31:41;20.60;86.00
19261;DHT22;9764;48.114;11.670;2023-03-20T02:34:33;20.60;86.10
19261;DHT22;9764;48.114;11.670;2023-03-20T02:40:19;20.60;86.10
19261;DHT22;9764;48.114;11.670;2023-03-20T02:42:59;20.60;86.10
19261;DHT22;9764;48.114;11.670;2023-03-20T02:45:33;20.60;86.10
19261;DHT22;9764;48.114;11.670;2023-03-20T02:48:23;20.60;86.10
19261;DHT22;9764;48.114;11.670;2023-03-20T02:50:59;20.60;86.10
19261;DHT22;9764;48.114;11.670;2023-03-20T02:53:41;20.60;86.10
19261;DHT22;9764;48.114;11.670;2023-03-20T02:56:13;20.60;86.10
19261;DHT22;9764;48.114;11.670;2023-03-20T02:58:48;20.60;86.10
19261;DHT22;9764;48.114;11.670;2023-03-20T03:01:21;20.60;86.10
19261;DHT22;9764;48.114;11.670;2023-03-20T03:03:54;20.60;86.10
19261;DHT22;9764;48.114;11.670;2023-03-20T03:06:26;20.60;86.20
19261;DHT22;9764;48.114;11.670;2023-03-20T03:09:02;20.60;86.10
19261;DHT22;9764;48.114;11.670;2023-03-20T03:11:35;20.60;86.20
19261;DHT22;9764;48.114;11.670;2023-03-20T03:14:05;20.60;86.90
19261;DHT22;9764;48.114;11.670;2023-03-20T03:16:36;20.60;86.10
19261;DHT22;9764;48.114;11.670;2023-03-20T03:19:07;20.60;86.10
19261;DHT22;9764;48.114;11.670;2023-03-20T03:21:39;20.60;86.10
19261;DHT22;9764;48.114;11.670;2023-03-20T03:24:22;20.60;86.10
19261;DHT22;9764;48.114;11.670;2023-03-20T03:27:12;20.60;86.20
19261;DHT22;9764;48.114;11.670;2023-03-20T03:29:49;20.60;86.20
19261;DHT22;9764;48.114;11.670;2023-03-20T03:32:23;20.60;86.10
19261;DHT22;9764;48.114;11.670;2023-03-20T03:34:52;20.60;86.20
19261;DHT22;9764;48.114;11.670;2023-03-20T03:37:28;20.60;86.10
19261;DHT22;9764;48.114;11.670;2023-03-20T03:40:06;20.60;86.10
19261;DHT22;9764;48.114;11.670;2023-03-20T03:42:43;20.60;86.10
19261;DHT22;9764;48.114;11.670;2023-03-20T03:45:19;20.60;86.10
19261;DHT22;9764;48.114;11.670;2023-03-20T03:47:52;20.60;86.10
19261;DHT22;9764;48.114;11.670;2023-03-20T03:50:24;20.60;86.20
19261;DHT22;9764;48.114;11.670;2023-03-20T03:52:58;20.60;86.10
19261;DHT22;9764;48.114;11.670;2023-03-20T03:55:33;20.60;86.20
19261;DHT22;9764;48.114;11.670;2023-03-20T03:58:09;20.60;86.20
19261;DHT22;9764;48.114;11.670;2023-03-20T04:00:40;20.60;86.20
19261;DHT22;9764;48.114;11.670;2023-03-20T04:03:10;20.60;86.20
19261;DHT22;9764;48.114;11.670;2023-03-20T04:05:42;20.60;86.20
19261;DHT22;9764;48.114;11.670;2023-03-20T04:08:13;20.60;86.20
19261;DHT22;9764;48.114;11.670;2023-03-20T04:10:43;20.60;86.20
19261;DHT22;9764;48.114;11.670;2023-03-20T04:13:11;20.60;86.20
19261;DHT22;9764;48.114;11.670;2023-03-20T04:15:40;20.60;86.20
19261;DHT22;9764;48.114;11.670;2023-03-20T04:18:13;20.60;86.20
19261;DHT22;9764;48.114;11.670;2023-03-20T04:20:43;20.60;86.20
19261;DHT22;9764;48.114;11.670;2023-03-20T04:23:12;20.60;86.20
19261;DHT22;9764;48.114;11.670;2023-03-20T04:25:42;20.60;86.10
19261;DHT22;9764;48.114;11.670;2023-03-20T04:28:10;20.60;86.20
19261;DHT22;9764;48.114;11.670;2023-03-20T04:30:51;20.50;86.10
19261;DHT22;9764;48.114;11.670;2023-03-20T04:33:55;20.60;86.20
19261;DHT22;9764;48.114;11.670;2023-03-20T04:36:42;20.60;86.20
19261;DHT22;9764;48.114;11.670;2023-03-20T04:39:13;20.50;86.20
19261;DHT22;9764;48.114;11.670;2023-03-20T04:41:42;20.50;86.10
19261;DHT22;9764;48.114;11.670;2023-03-20T04:44:11;20.50;86.10
19261;DHT22;9764;48.114;11.670;2023-03-20T04:46:42;20.50;86.10
19261;DHT22;9764;48.114;11.670;2023-03-20T04:49:15;20.50;86.10
19261;DHT22;9764;48.114;11.670;2023-03-20T04:51:43;20.50;86.10
19261;DHT22;9764;48.114;11.670;2023-03-20T04:54:13;20.60;86.20
19261;DHT22;9764;48.114;11.670;2023-03-20T04:56:43;20.60;86.20
19261;DHT22;9764;48.114;11.670;2023-03-20T04:59:15;20.50;86.10
19261;DHT22;9764;48.114;11.670;2023-03-20T05:01:44;20.50;86.10
19261;DHT22;9764;48.114;11.670;2023-03-20T05:04:12;20.50;86.10
19261;DHT22;9764;48.114;11.670;2023-03-20T05:06:41;20.50;86.10
19261;DHT22;9764;48.114;11.670;2023-03-20T05:09:10;20.60;86.20
19261;DHT22;9764;48.114;11.670;2023-03-20T05:11:38;20.50;86.10
19261;DHT22;9764;48.114;11.670;2023-03-20T05:14:26;20.60;86.20
19261;DHT22;9764;48.114;11.670;2023-03-20T05:17:17;20.60;86.20
19261;DHT22;9764;48.114;11.670;2023-03-20T05:20:11;20.50;86.20
19261;DHT22;9764;48.114;11.670;2023-03-20T05:22:59;20.50;86.20
19261;DHT22;9764;48.114;11.670;2023-03-20T05:25:59;20.50;86.20
19261;DHT22;9764;48.114;11.670;2023-03-20T05:28:46;20.50;86.20
19261;DHT22;9764;48.114;11.670;2023-03-20T05:31:34;20.60;86.20
19261;DHT22;9764;48.114;11.670;2023-03-20T05:34:11;20.60;86.30
19261;DHT22;9764;48.114;11.670;2023-03-20T05:36:58;20.60;86.20
19261;DHT22;9764;48.114;11.670;2023-03-20T05:39:46;20.60;86.30
19261;DHT22;9764;48.114;11.670;2023-03-20T05:42:33;20.60;86.20
19261;DHT22;9764;48.114;11.670;2023-03-20T05:45:16;20.60;86.20
19261;DHT22;9764;48.114;11.670;2023-03-20T05:47:45;20.60;86.30
19261;DHT22;9764;48.114;11.670;2023-03-20T05:50:42;20.60;86.20
19261;DHT22;9764;48.114;11.670;2023-03-20T05:53:27;20.60;86.20
19261;DHT22;9764;48.114;11.670;2023-03-20T05:56:08;20.60;86.20
19261;DHT22;9764;48.114;11.670;2023-03-20T05:58:39;20.60;86.20
19261;DHT22;9764;48.114;11.670;2023-03-20T06:01:43;20.60;86.10
19261;DHT22;9764;48.114;11.670;2023-03-20T06:04:26;20.60;86.10
19261;DHT22;9764;48.114;11.670;2023-03-20T06:07:17;20.60;86.20
19261;DHT22;9764;48.114;11.670;2023-03-20T06:09:55;20.60;86.00
19261;DHT22;9764;48.114;11.670;2023-03-20T06:12:25;20.60;86.00
19261;DHT22;9764;48.114;11.670;2023-03-20T06:14:53;20.60;86.10
19261;DHT22;9764;48.114;11.670;2023-03-20T06:17:22;20.60;86.00
19261;DHT22;9764;48.114;11.670;2023-03-20T06:19:58;20.60;86.00
19261;DHT22;9764;48.114;11.670;2023-03-20T06:22:28;20.60;86.00
19261;DHT22;9764;48.114;11.670;2023-03-20T06:24:57;20.70;86.10
19261;DHT22;9764;48.114;11.670;2023-03-20T06:27:34;20.60;86.00
19261;DHT22;9764;48.114;11.670;2023-03-20T06:30:04;20.70;86.10
19261;DHT22;9764;48.114;11.670;2023-03-20T06:32:35;20.70;86.00
19261;DHT22;9764;48.114;11.670;2023-03-20T06:35:08;20.70;86.00
19261;DHT22;9764;48.114;11.670;2023-03-20T06:37:42;20.70;86.00
19261;DHT22;9764;48.114;11.670;2023-03-20T06:40:15;20.70;86.00
19261;DHT22;9764;48.114;11.670;2023-03-20T06:42:44;20.70;86.00
19261;DHT22;9764;48.114;11.670;2023-03-20T06:45:13;20.70;86.80
19261;DHT22;9764;48.114;11.670;2023-03-20T06:47:50;20.70;85.90
19261;DHT22;9764;48.114;11.670;2023-03-20T06:50:19;20.70;85.90
19261;DHT22;9764;48.114;11.670;2023-03-20T06:52:48;20.70;85.90
19261;DHT22;9764;48.114;11.670;2023-03-20T06:55:35;20.70;85.90
19261;DHT22;9764;48.114;11.670;2023-03-20T06:58:05;20.70;85.90
19261;DHT22;9764;48.114;11.670;2023-03-20T07:00:34;20.70;85.80
19261;DHT22;9764;48.114;11.670;2023-03-20T07:03:05;20.70;85.90
19261;DHT22;9764;48.114;11.670;2023-03-20T07:05:36;20.70;85.80
19261;DHT22;9764;48.114;11.670;2023-03-20T07:08:08;20.80;85.80
19261;DHT22;9764;48.114;11.670;2023-03-20T07:10:37;20.80;85.80
19261;DHT22;9764;48.114;11.670;2023-03-20T07:13:05;20.80;85.80
19261;DHT22;9764;48.114;11.670;2023-03-20T07:15:36;20.80;85.70
19261;DHT22;9764;48.114;11.670;2023-03-20T07:18:06;20.80;85.80
19261;DHT22;9764;48.114;11.670;2023-03-20T07:20:36;20.80;85.60
19261;DHT22;9764;48.114;11.670;2023-03-20T07:23:04;20.80;85.60
19261;DHT22;9764;48.114;11.670;2023-03-20T07:25:34;20.80;85.60
19261;DHT22;9764;48.114;11.670;2023-03-20T07:28:13;20.80;85.60
19261;DHT22;9764;48.114;11.670;2023-03-20T07:30:48;20.90;85.60
19261;DHT22;9764;48.114;11.670;2023-03-20T07:33:17;20.90;85.50
19261;DHT22;9764;48.114;11.670;2023-03-20T07:35:51;20.90;85.50
19261;DHT22;9764;48.114;11.670;2023-03-20T07:38:20;20.90;86.30
19261;DHT22;9764;48.114;11.670;2023-03-20T07:41:01;20.90;85.40
19261;DHT22;9764;48.114;11.670;2023-03-20T07:43:30;20.90;85.40
19261;DHT22;9764;48.114;11.670;2023-03-20T07:46:01;20.90;85.40
19261;DHT22;9764;48.114;11.670;2023-03-20T07:48:30;20.90;85.50
19261;DHT22;9764;48.114;11.670;2023-03-20T07:51:00;20.90;85.50
19261;DHT22;9764;48.114;11.670;2023-03-20T07:53:28;20.90;85.40
19261;DHT22;9764;48.114;11.670;2023-03-20T07:55:57;20.90;85.40
19261;DHT22;9764;48.114;11.670;2023-03-20T07:58:25;21.00;85.50
19261;DHT22;9764;48.114;11.670;2023-03-20T08:00:55;21.00;85.50
19261;DHT22;9764;48.114;11.670;2023-03-20T08:03:24;21.00;85.40
19261;DHT22;9764;48.114;11.670;2023-03-20T08:05:53;21.00;85.40
19261;DHT22;9764;48.114;11.670;2023-03-20T08:08:23;21.00;85.50
19261;DHT22;9764;48.114;11.670;2023-03-20T08:10:51;21.00;85.40
19261;DHT22;9764;48.114;11.670;2023-03-20T08:13:20;21.00;85.40
19261;DHT22;9764;48.114;11.670;2023-03-20T08:15:48;21.00;85.40
19261;DHT22;9764;48.114;11.670;2023-03-20T08:18:18;21.00;85.30
19261;DHT22;9764;48.114;11.670;2023-03-20T08:20:48;21.00;85.30
19261;DHT22;9764;48.114;11.670;2023-03-20T08:23:17;21.00;85.30
19261;DHT22;9764;48.114;11.670;2023-03-20T08:25:49;21.00;86.20
19261;DHT22;9764;48.114;11.670;2023-03-20T08:28:17;21.10;85.30
19261;DHT22;9764;48.114;11.670;2023-03-20T08:30:46;21.10;85.40
19261;DHT22;9764;48.114;11.670;2023-03-20T08:33:15;21.10;85.40
19261;DHT22;9764;48.114;11.670;2023-03-20T08:35:54;21.10;85.30
19261;DHT22;9764;48.114;11.670;2023-03-20T08:38:23;21.10;85.30
19261;DHT22;9764;48.114;11.670;2023-03-20T08:40:53;21.10;85.20
19261;DHT22;9764;48.114;11.670;2023-03-20T08:43:21;21.10;85.30
19261;DHT22;9764;48.114;11.670;2023-03-20T08:45:51;21.10;85.30
19261;DHT22;9764;48.114;11.670;2023-03-20T08:48:19;21.10;85.20
19261;DHT22;9764;48.114;11.670;2023-03-20T08:50:48;21.10;85.30
19261;DHT22;9764;48.114;11.670;2023-03-20T08:53:16;21.10;85.30
19261;DHT22;9764;48.114;11.670;2023-03-20T08:55:48;21.10;85.10
19261;DHT22;9764;48.114;11.670;2023-03-20T08:58:19;21.20;85.20
19261;DHT22;9764;48.114;11.670;2023-03-20T09:00:47;21.20;85.20
19261;DHT22;9764;48.114;11.670;2023-03-20T09:03:17;21.20;85.10
19261;DHT22;9764;48.114;11.670;2023-03-20T09:05:48;21.20;85.10
19261;DHT22;9764;48.114;11.670;2023-03-20T09:08:17;21.20;85.00
19261;DHT22;9764;48.114;11.670;2023-03-20T09:10:46;21.20;85.00
19261;DHT22;9764;48.114;11.670;2023-03-20T09:13:20;21.30;85.00
19261;DHT22;9764;48.114;11.670;2023-03-20T09:15:54;21.30;85.00
19261;DHT22;9764;48.114;11.670;2023-03-20T09:18:23;21.30;84.90
19261;DHT22;9764;48.114;11.670;2023-03-20T09:20:52;21.30;84.80
19261;DHT22;9764;48.114;11.670;2023-03-20T09:23:22;21.40;84.80
19261;DHT22;9764;48.114;11.670;2023-03-20T09:25:51;21.40;84.80
19261;DHT22;9764;48.114;11.670;2023-03-20T09:28:20;21.50;84.70
19261;DHT22;9764;48.114;11.670;2023-03-20T09:30:49;21.50;84.60
19261;DHT22;9764;48.114;11.670;2023-03-20T09:33:17;21.50;84.50
19261;DHT22;9764;48.114;11.670;2023-03-20T09:35:45;21.50;84.50
19261;DHT22;9764;48.114;11.670;2023-03-20T09:38:14;21.60;84.50
19261;DHT22;9764;48.114;11.670;2023-03-20T09:40:50;21.60;84.50
19261;DHT22;9764;48.114;11.670;2023-03-20T09:43:28;21.60;84.40
19261;DHT22;9764;48.114;11.670;2023-03-20T09:46:11;21.60;84.40
19261;DHT22;9764;48.114;11.670;2023-03-20T09:48:48;21.60;84.40
19261;DHT22;9764;48.114;11.670;2023-03-20T09:51:25;21.60;84.40
19261;DHT22;9764;48.114;11.670;2023-03-20T09:54:01;21.60;84.40
19261;DHT22;9764;48.114;11.670;2023-03-20T09:56:31;21.60;84.50
19261;DHT22;9764;48.114;11.670;2023-03-20T09:59:03;21.60;84.50
19261;DHT22;9764;48.114;11.670;2023-03-20T10:01:38;21.60;84.50
19261;DHT22;9764;48.114;11.670;2023-03-20T10:04:09;21.50;84.60
19261;DHT22;9764;48.114;11.670;2023-03-20T10:06:38;21.50;84.60
19261;DHT22;9764;48.114;11.670;2023-03-20T10:09:14;21.50;84.70
19261;DHT22;9764;48.114;11.670;2023-03-20T10:12:02;21.50;84.60
19261;DHT22;9764;48.114;11.670;2023-03-20T10:14:48;21.50;84.60
19261;DHT22;9764;48.114;11.670;2023-03-20T10:17:32;21.50;84.70
19261;DHT22;9764;48.114;11.670;2023-03-20T10:20:12;21.50;84.70
19261;DHT22;9764;48.114;11.670;2023-03-20T10:22:44;21.50;84.70
19261;DHT22;9764;48.114;11.670;2023-03-20T10:25:22;21.50;84.80
19261;DHT22;9764;48.114;11.670;2023-03-20T10:27:56;21.40;84.80
19261;DHT22;9764;48.114;11.670;2023-03-20T10:30:48;21.40;84.80
19261;DHT22;9764;48.114;11.670;2023-03-20T10:33:26;21.40;84.80
19261;DHT22;9764;48.114;11.670;2023-03-20T10:36:08;21.40;84.80
19261;DHT22;9764;48.114;11.670;2023-03-20T10:38:43;21.40;84.80
19261;DHT22;9764;48.114;11.670;2023-03-20T10:41:16;21.40;84.90
19261;DHT22;9764;48.114;11.670;2023-03-20T10:43:47;21.40;84.90
19261;DHT22;9764;48.114;11.670;2023-03-20T10:46:20;21.40;84.80
19261;DHT22;9764;48.114;11.670;2023-03-20T10:48:53;21.40;84.90
19261;DHT22;9764;48.114;11.670;2023-03-20T10:51:33;21.40;84.90
19261;DHT22;9764;48.114;11.670;2023-03-20T10:54:05;21.40;84.90
19261;DHT22;9764;48.114;11.670;2023-03-20T10:56:36;21.40;84.90
19261;DHT22;9764;48.114;11.670;2023-03-20T10:59:09;21.50;84.90
19261;DHT22;9764;48.114;11.670;2023-03-20T11:01:40;21.50;84.90
19261;DHT22;9764;48.114;11.670;2023-03-20T11:04:09;21.50;84.90
19261;DHT22;9764;48.114;11.670;2023-03-20T11:06:42;21.50;84.90
19261;DHT22;9764;48.114;11.670;2023-03-20T11:09:17;21.50;85.30
19261;DHT22;9764;48.114;11.670;2023-03-20T11:11:47;21.50;84.80
19261;DHT22;9764;48.114;11.670;2023-03-20T11:14:18;21.50;84.80
19261;DHT22;9764;48.114;11.670;2023-03-20T11:16:49;21.50;84.80
19261;DHT22;9764;48.114;11.670;2023-03-20T11:19:19;21.50;84.80
19261;DHT22;9764;48.114;11.670;2023-03-20T11:21:50;21.60;84.80
19261;DHT22;9764;48.114;11.670;2023-03-20T11:24:26;21.60;84.70
19261;DHT22;9764;48.114;11.670;2023-03-20T11:27:05;21.60;84.60
19261;DHT22;9764;48.114;11.670;2023-03-20T11:29:34;21.70;84.60
19261;DHT22;9764;48.114;11.670;2023-03-20T11:32:10;21.70;84.50
19261;DHT22;9764;48.114;11.670;2023-03-20T11:34:43;21.80;84.50
19261;DHT22;9764;48.114;11.670;2023-03-20T11:37:23;21.80;84.40
19261;DHT22;9764;48.114;11.670;2023-03-20T11:40:00;21.80;84.30
19261;DHT22;9764;48.114;11.670;2023-03-20T11:42:34;21.90;84.20
19261;DHT22;9764;48.114;11.670;2023-03-20T11:45:04;21.90;84.20
19261;DHT22;9764;48.114;11.670;2023-03-20T11:47:35;21.90;84.10
19261;DHT22;9764;48.114;11.670;2023-03-20T11:50:05;21.90;84.10
19261;DHT22;9764;48.114;11.670;2023-03-20T11:52:36;22.00;84.10
19261;DHT22;9764;48.114;11.670;2023-03-20T11:55:22;22.00;84.10
19261;DHT22;9764;48.114;11.670;2023-03-20T11:57:56;22.00;84.10
19261;DHT22;9764;48.114;11.670;2023-03-20T12:00:27;22.00;84.10
19261;DHT22;9764;48.114;11.670;2023-03-20T12:02:57;22.00;84.10
19261;DHT22;9764;48.114;11.670;2023-03-20T12:05:31;22.00;84.10
19261;DHT22;9764;48.114;11.670;2023-03-20T12:08:02;22.00;84.00
19261;DHT22;9764;48.114;11.670;2023-03-20T12:10:35;22.00;84.00
19261;DHT22;9764;48.114;11.670;2023-03-20T12:13:11;22.00;84.00
19261;DHT22;9764;48.114;11.670;2023-03-20T12:15:43;22.00;84.00
19261;DHT22;9764;48.114;11.670;2023-03-20T12:18:18;22.00;84.00
19261;DHT22;9764;48.114;11.670;2023-03-20T12:20:57;22.10;84.00
19261;DHT22;9764;48.114;11.670;2023-03-20T12:23:32;22.00;84.10
19261;DHT22;9764;48.114;11.670;2023-03-20T12:26:03;22.10;84.00
19261;DHT22;9764;48.114;11.670;2023-03-20T12:28:38;22.00;84.00
19261;DHT22;9764;48.114;11.670;2023-03-20T12:31:19;22.10;84.00
19261;DHT22;9764;48.114;11.670;2023-03-20T12:33:53;22.10;84.10
19261;DHT22;9764;48.114;11.670;2023-03-20T12:36:30;22.10;84.10
19261;DHT22;9764;48.114;11.670;2023-03-20T12:39:02;22.10;84.10
19261;DHT22;9764;48.114;11.670;2023-03-20T12:41:39;22.10;84.00
19261;DHT22;9764;48.114;11.670;2023-03-20T12:44:18;22.10;84.00
19261;DHT22;9764;48.114;11.670;2023-03-20T12:46:54;22.10;84.00
19261;DHT22;9764;48.114;11.670;2023-03-20T12:49:35;22.10;84.10
19261;DHT22;9764;48.114;11.670;2023-03-20T12:52:12;22.10;84.00
19261;DHT22;9764;48.114;11.670;2023-03-20T12:54:57;22.10;84.00
19261;DHT22;9764;48.114;11.670;2023-03-20T12:57:32;22.10;84.10
19261;DHT22;9764;48.114;11.670;2023-03-20T13:00:17;22.10;84.00
19261;DHT22;9764;48.114;11.670;2023-03-20T13:02:57;22.10;84.00
19261;DHT22;9764;48.114;11.670;2023-03-20T13:05:35;22.10;84.00
19261;DHT22;9764;48.114;11.670;2023-03-20T13:08:31;22.20;84.10
19261;DHT22;9764;48.114;11.670;2023-03-20T13:11:12;22.20;84.00
19261;DHT22;9764;48.114;11.670;2023-03-20T13:13:46;22.20;83.90
19261;DHT22;9764;48.114;11.670;2023-03-20T13:16:22;22.20;84.00
19261;DHT22;9764;48.114;11.670;2023-03-20T13:19:00;22.20;83.90
19261;DHT22;9764;48.114;11.670;2023-03-20T13:21:33;22.20;84.00
19261;DHT22;9764;48.114;11.670;2023-03-20T13:24:28;22.20;83.90
19261;DHT22;9764;48.114;11.670;2023-03-20T13:27:01;22.20;84.00
19261;DHT22;9764;48.114;11.670;2023-03-20T13:29:41;22.20;83.90
19261;DHT22;9764;48.114;11.670;2023-03-20T13:32:19;22.20;83.90
19261;DHT22;9764;48.114;11.670;2023-03-20T13:35:15;22.20;83.90
19261;DHT22;9764;48.114;11.670;2023-03-20T13:37:50;22.20;83.90
19261;DHT22;9764;48.114;11.670;2023-03-20T13:40:22;22.20;83.90
19261;DHT22;9764;48.114;11.670;2023-03-20T13:42:53;22.20;83.90
19261;DHT22;9764;48.114;11.670;2023-03-20T13:45:32;22.20;84.00
19261;DHT22;9764;48.114;11.670;2023-03-20T13:48:06;22.20;83.90
19261;DHT22;9764;48.114;11.670;2023-03-20T13:50:43;22.20;84.00
19261;DHT22;9764;48.114;11.670;2023-03-20T13:53:25;22.20;84.00
19261;DHT22;9764;48.114;11.670;2023-03-20T13:56:02;22.20;84.10
19261;DHT22;9764;48.114;11.670;2023-03-20T13:58:45;22.20;84.10
19261;DHT22;9764;48.114;11.670;2023-03-20T14:01:19;22.10;84.00
19261;DHT22;9764;48.114;11.670;2023-03-20T14:03:49;22.10;84.10
19261;DHT22;9764;48.114;11.670;2023-03-20T14:06:44;22.10;84.10
19261;DHT22;9764;48.114;11.670;2023-03-20T14:09:29;22.10;84.10
19261;DHT22;9764;48.114;11.670;2023-03-20T14:12:08;22.10;84.10
19261;DHT22;9764;48.114;11.670;2023-03-20T14:14:42;22.10;84.20
19261;DHT22;9764;48.114;11.670;2023-03-20T14:17:16;22.10;84.10
19261;DHT22;9764;48.114;11.670;2023-03-20T14:19:45;22.10;84.10
19261;DHT22;9764;48.114;11.670;2023-03-20T14:22:18;22.20;84.10
19261;DHT22;9764;48.114;11.670;2023-03-20T14:24:55;22.20;84.20
19261;DHT22;9764;48.114;11.670;2023-03-20T14:27:26;22.20;84.10
19261;DHT22;9764;48.114;11.670;2023-03-20T14:33:27;22.20;84.10
19261;DHT22;9764;48.114;11.670;2023-03-20T14:36:17;22.20;84.10
19261;DHT22;9764;48.114;11.670;2023-03-20T14:38:53;22.20;84.10
19261;DHT22;9764;48.114;11.670;2023-03-20T14:41:27;22.20;84.00
19261;DHT22;9764;48.114;11.670;2023-03-20T14:44:12;22.20;84.00
19261;DHT22;9764;48.114;11.670;2023-03-20T14:46:47;22.20;84.00
19261;DHT22;9764;48.114;11.670;2023-03-20T14:49:35;22.20;84.00
19261;DHT22;9764;48.114;11.670;2023-03-20T14:52:24;22.20;84.10
19261;DHT22;9764;48.114;11.670;2023-03-20T14:55:14;22.20;84.10
19261;DHT22;9764;48.114;11.670;2023-03-20T14:57:43;22.20;84.00
19261;DHT22;9764;48.114;11.670;2023-03-20T15:00:24;22.20;84.00
19261;DHT22;9764;48.114;11.670;2023-03-20T15:03:03;22.20;84.00
19261;DHT22;9764;48.114;11.670;2023-03-20T15:05:34;22.20;84.10
19261;DHT22;9764;48.114;11.670;2023-03-20T15:08:06;22.20;84.10
19261;DHT22;9764;48.114;11.670;2023-03-20T15:10:44;22.20;84.10
19261;DHT22;9764;48.114;11.670;2023-03-20T15:13:14;22.20;84.10
19261;DHT22;9764;48.114;11.670;2023-03-20T15:15:52;22.20;84.10
19261;DHT22;9764;48.114;11.670;2023-03-20T15:18:22;22.20;84.10
19261;DHT22;9764;48.114;11.670;2023-03-20T15:20:50;22.20;84.10
19261;DHT22;9764;48.114;11.670;2023-03-20T15:23:20;22.20;84.10
19261;DHT22;9764;48.114;11.670;2023-03-20T15:25:50;22.20;84.20
19261;DHT22;9764;48.114;11.670;2023-03-20T15:28:21;22.20;85.00
19261;DHT22;9764;48.114;11.670;2023-03-20T15:30:51;22.20;84.20
19261;DHT22;9764;48.114;11.670;2023-03-20T15:33:25;22.20;84.30
19261;DHT22;9764;48.114;11.670;2023-03-20T15:35:54;22.20;84.30
19261;DHT22;9764;48.114;11.670;2023-03-20T15:38:33;22.20;84.30
19261;DHT22;9764;48.114;11.670;2023-03-20T15:41:05;22.20;84.30
19261;DHT22;9764;48.114;11.670;2023-03-20T15:43:34;22.20;84.30
19261;DHT22;9764;48.114;11.670;2023-03-20T15:46:04;22.20;84.40
19261;DHT22;9764;48.114;11.670;2023-03-20T15:48:47;22.20;84.50
19261;DHT22;9764;48.114;11.670;2023-03-20T15:51:17;22.20;84.50
19261;DHT22;9764;48.114;11.670;2023-03-20T15:53:47;22.10;84.40
19261;DHT22;9764;48.114;11.670;2023-03-20T15:56:18;22.20;84.40
19261;DHT22;9764;48.114;11.670;2023-03-20T15:58:50;22.10;84.40
19261;DHT22;9764;48.114;11.670;2023-03-20T16:01:21;22.10;84.50
19261;DHT22;9764;48.114;11.670;2023-03-20T16:03:50;22.10;84.40
19261;DHT22;9764;48.114;11.670;2023-03-20T16:06:20;22.10;84.40
19261;DHT22;9764;48.114;11.670;2023-03-20T16:08:57;22.10;84.50
19261;DHT22;9764;48.114;11.670;2023-03-20T16:11:35;22.10;84.60
19261;DHT22;9764;48.114;11.670;2023-03-20T16:14:05;22.10;84.60
19261;DHT22;9764;48.114;11.670;2023-03-20T16:16:34;22.10;84.60
19261;DHT22;9764;48.114;11.670;2023-03-20T16:19:04;22.10;84.60
19261;DHT22;9764;48.114;11.670;2023-03-20T16:21:35;22.10;84.60
19261;DHT22;9764;48.114;11.670;2023-03-20T16:24:06;22.00;84.60
19261;DHT22;9764;48.114;11.670;2023-03-20T16:26:42;22.00;84.60